Time;durP1;ratioP1;P1;durP2;ratioP2;P2;SDS_P1;SDS_P2;PMS_P1;PMS_P2;Temp;Humidity;BMP_temperature;BMP_pressure;BME280_temperature;BME280_humidity;BME280_pressure;Samples;Min_cycle;Max_cycle;Signal;HPM_P1;HPM_P2
2021/04/25 00:00:43;;;;;;;6.35;2.27;;;;;;;3.93;55.69;100924.89;1730435;80;21642;-75
2021/04/25 00:03:10;;;;;;;5.80;2.33;;;;;;;3.88;55.72;100924.65;1763765;80;21195;-76
2021/04/25 00:05:38;;;;;;;5.67;2.45;;;;;;;3.88;55.75;100923.34;1729490;80;21132;-74
2021/04/25 00:08:07;;;;;;;5.45;2.27;;;;;;;3.85;55.73;100926.08;1739449;80;22154;-75
2021/04/25 00:10:35;;;;;;;4.28;1.75;;;;;;;3.82;55.92;100922.30;1764396;79;21160;-75
2021/04/25 00:13:02;;;;;;;6.78;2.40;;;;;;;3.79;55.95;100918.52;1730622;82;21125;-75
2021/04/25 00:15:31;;;;;;;5.72;2.52;;;;;;;3.78;56.02;100921.19;1731200;82;21184;-74
2021/04/25 00:17:58;;;;;;;5.20;2.08;;;;;;;3.75;56.03;100918.72;1701487;83;21137;-73
2021/04/25 00:20:26;;;;;;;7.25;3.50;;;;;;;3.71;56.01;100911.03;1704179;83;21884;-74
2021/04/25 00:22:53;;;;;;;5.00;2.55;;;;;;;3.69;55.98;100913.33;1704957;83;21148;-74
2021/04/25 00:25:21;;;;;;;6.75;2.33;;;;;;;3.70;55.76;100915.03;1714168;82;21795;-76
2021/04/25 00:27:48;;;;;;;8.70;2.45;;;;;;;3.70;55.76;100915.03;1709069;82;21661;-76
2021/04/25 00:30:19;;;;;;;6.72;2.40;;;;;;;3.69;55.94;100913.33;1693095;82;21152;-74
2021/04/25 00:32:46;;;;;;;6.03;2.10;;;;;;;3.68;55.96;100911.63;1662756;84;22014;-74
2021/04/25 00:35:14;;;;;;;5.25;2.02;;;;;;;3.67;56.02;100907.34;1659125;83;21236;-75
2021/04/25 00:37:43;;;;;;;5.40;1.98;;;;;;;3.69;55.96;100902.91;1663686;84;21147;-74
2021/04/25 00:40:12;;;;;;;5.05;2.20;;;;;;;3.69;55.96;100902.91;1689292;83;21493;-74
2021/04/25 00:42:40;;;;;;;5.72;2.15;;;;;;;3.70;55.86;100895.51;1689339;83;21216;-74
2021/04/25 00:45:14;;;;;;;6.25;2.02;;;;;;;3.71;55.89;100901.92;1688127;83;21210;-74
2021/04/25 00:47:44;;;;;;;5.87;2.25;;;;;;;3.71;55.86;100889.38;1671279;84;21158;-74
2021/04/25 00:50:13;;;;;;;6.72;2.50;;;;;;;3.71;55.72;100895.41;1671902;84;21180;-75
2021/04/25 00:52:44;;;;;;;5.25;1.70;;;;;;;3.71;55.81;100891.98;1646790;85;21240;-75
2021/04/25 00:55:14;;;;;;;6.17;2.65;;;;;;;3.70;55.67;100890.30;1671455;85;21196;-75
2021/04/25 00:57:43;;;;;;;5.22;1.98;;;;;;;3.70;55.70;100892.91;1644806;86;22499;-75
2021/04/25 01:00:12;;;;;;;5.22;2.05;;;;;;;3.69;55.76;100889.91;1689510;83;21187;-77
2021/04/25 01:02:39;;;;;;;5.58;2.12;;;;;;;3.68;55.80;100883.00;1688418;83;21148;-75
2021/04/25 01:05:11;;;;;;;6.75;2.15;;;;;;;3.67;55.83;100883.92;1667960;84;21762;-76
2021/04/25 01:07:38;;;;;;;7.92;2.60;;;;;;;3.65;55.79;100877.95;1657322;83;21785;-75
2021/04/25 01:10:06;;;;;;;6.37;2.17;;;;;;;3.63;55.90;100876.71;1681993;83;21214;-75
2021/04/25 01:12:34;;;;;;;6.12;2.72;;;;;;;3.61;55.89;100872.47;1682081;83;21649;-78
2021/04/25 01:15:01;;;;;;;6.03;2.45;;;;;;;3.59;55.95;100870.39;1646937;84;21775;-75
2021/04/25 01:17:28;;;;;;;6.33;2.72;;;;;;;3.59;56.36;100868.63;1638202;85;21512;-75
2021/04/25 01:19:59;;;;;;;6.17;2.75;;;;;;;3.59;56.36;100868.63;1629792;87;21168;-75
2021/04/25 01:22:26;;;;;;;9.38;2.45;;;;;;;3.60;56.07;100863.83;1681412;83;21217;-75
2021/04/25 01:24:53;;;;;;;7.08;2.87;;;;;;;3.60;56.14;100861.66;1657140;84;21199;-74
2021/04/25 01:27:21;;;;;;;7.42;3.10;;;;;;;3.60;56.13;100865.13;1678495;83;21172;-74
2021/04/25 01:29:49;;;;;;;5.62;2.40;;;;;;;3.59;56.23;100862.59;1671090;84;21180;-75
2021/04/25 01:32:16;;;;;;;5.22;2.10;;;;;;;3.59;56.27;100856.92;1682077;83;21614;-78
2021/04/25 01:34:43;;;;;;;5.72;2.58;;;;;;;3.58;56.28;100856.98;1667172;85;22147;-74
2021/04/25 01:37:11;;;;;;;5.90;2.80;;;;;;;3.59;56.33;100851.72;1680449;83;21311;-75
2021/04/25 01:39:38;;;;;;;5.03;1.80;;;;;;;3.59;56.35;100854.31;1662489;85;21172;-76
2021/04/25 01:42:06;;;;;;;6.20;2.40;;;;;;;3.59;56.39;100850.87;1684488;83;21140;-77
2021/04/25 01:44:34;;;;;;;6.60;2.70;;;;;;;3.58;56.35;100842.67;1684131;83;21192;-75
2021/04/25 01:47:01;;;;;;;7.72;2.67;;;;;;;3.56;56.42;100849.23;1686907;83;21439;-74
2021/04/25 01:49:29;;;;;;;4.92;1.87;;;;;;;3.58;56.33;100842.67;1665087;81;21191;-79
2021/04/25 01:51:56;;;;;;;5.35;2.47;;;;;;;3.61;56.36;100841.24;1736472;81;21172;-73
2021/04/25 01:54:23;;;;;;;4.85;2.47;;;;;;;3.59;56.32;100836.10;1739071;81;21148;-75
2021/04/25 01:56:50;;;;;;;6.40;2.00;;;;;;;3.62;56.26;100837.73;1700296;82;21180;-75
2021/04/25 01:59:18;;;;;;;5.20;2.22;;;;;;;3.60;56.16;100837.80;1737144;81;21224;-75
2021/04/25 02:01:45;;;;;;;5.25;1.80;;;;;;;3.61;56.15;100838.64;1733910;82;22274;-75
2021/04/25 02:04:13;;;;;;;5.47;2.05;;;;;;;3.62;56.21;100833.37;1725918;82;21136;-76
2021/04/25 02:06:42;;;;;;;6.30;2.20;;;;;;;3.62;56.13;100841.17;1704670;82;21168;-73
2021/04/25 02:09:10;;;;;;;9.50;2.40;;;;;;;3.62;56.16;100834.67;1704069;82;21137;-74
2021/04/25 02:11:38;;;;;;;6.75;2.42;;;;;;;3.65;55.95;100838.44;1673866;85;21178;-75
2021/04/25 02:14:06;;;;;;;4.53;2.17;;;;;;;3.65;55.90;100831.10;1678138;84;21196;-75
2021/04/25 02:16:34;;;;;;;4.70;1.95;;;;;;;3.63;55.97;100830.30;1677686;84;21160;-74
2021/04/25 02:19:03;;;;;;;6.55;2.47;;;;;;;3.64;55.93;100832.00;1682761;85;21642;-74
2021/04/25 02:21:30;;;;;;;5.95;1.82;;;;;;;3.64;55.84;100825.50;1659243;85;21650;-78
2021/04/25 02:23:58;;;;;;;6.67;2.52;;;;;;;3.66;55.77;100828.87;1697161;83;22114;-74
2021/04/25 02:26:25;;;;;;;4.80;2.02;;;;;;;3.65;55.70;100828.50;1675655;84;21157;-76
2021/04/25 02:28:52;;;;;;;5.75;2.20;;;;;;;3.65;55.66;100828.50;1680383;84;21127;-74
2021/04/25 02:31:20;;;;;;;5.22;2.08;;;;;;;3.69;55.51;100831.34;1731377;82;21184;-74
2021/04/25 02:33:48;;;;;;;7.90;2.87;;;;;;;3.72;55.70;100824.70;1728028;82;21152;-76
2021/04/25 02:36:19;;;;;;;5.33;2.27;;;;;;;3.74;55.54;100825.47;1738055;82;21443;-74
2021/04/25 02:38:46;;;;;;;4.83;2.08;;;;;;;3.75;55.60;100825.88;1702763;82;21619;-75
2021/04/25 02:41:14;;;;;;;5.45;2.33;;;;;;;3.82;55.37;100822.55;1727967;82;21172;-75
2021/04/25 02:43:41;;;;;;;4.42;1.80;;;;;;;3.86;55.32;100826.69;1708528;82;21637;-75
2021/04/25 02:46:09;;;;;;;5.50;2.40;;;;;;;3.88;55.18;100820.94;1727535;82;21168;-75
2021/04/25 02:48:36;;;;;;;7.37;2.83;;;;;;;3.89;54.87;100821.34;1701656;82;21440;-77
2021/04/25 02:51:04;;;;;;;7.37;2.60;;;;;;;3.95;54.95;100831.49;1728628;82;21184;-74
2021/04/25 02:53:33;;;;;;;5.90;2.85;;;;;;;3.97;55.01;100822.28;1712585;82;21155;-79
2021/04/25 02:56:00;;;;;;;7.12;2.70;;;;;;;4.01;54.99;100829.06;1735601;82;21628;-75
2021/04/25 02:58:27;;;;;;;5.87;2.80;;;;;;;4.05;55.08;100827.98;1727614;82;21607;-78
2021/04/25 03:00:55;;;;;;;5.72;2.40;;;;;;;4.11;55.26;100832.09;1728411;81;21486;-75
2021/04/25 03:03:24;;;;;;;6.92;2.50;;;;;;;4.12;54.59;100828.12;1720625;82;21121;-74
2021/04/25 03:05:55;;;;;;;6.62;3.25;;;;;;;4.15;54.63;100825.81;1712519;82;22300;-74
2021/04/25 03:08:22;;;;;;;7.58;2.83;;;;;;;4.18;54.48;100826.51;1729214;82;21594;-75
2021/04/25 03:10:50;;;;;;;6.30;2.47;;;;;;;4.18;54.48;100826.51;1721002;82;21181;-74
2021/04/25 03:13:17;;;;;;;7.30;2.70;;;;;;;4.22;54.64;100832.41;1705345;81;21571;-74
2021/04/25 03:15:45;;;;;;;5.85;2.75;;;;;;;4.25;54.24;100823.16;1723680;82;21157;-74
2021/04/25 03:18:13;;;;;;;8.35;3.60;;;;;;;4.25;54.18;100835.75;1710161;82;21228;-75
2021/04/25 03:20:40;;;;;;;8.90;3.12;;;;;;;4.27;54.17;100831.31;1730859;81;21165;-75
2021/04/25 03:23:08;;;;;;;6.50;2.37;;;;;;;4.33;54.11;100829.33;1725947;82;21210;-75
2021/04/25 03:25:35;;;;;;;8.45;2.77;;;;;;;4.36;54.22;100827.89;1717074;82;21205;-75
2021/04/25 03:28:04;;;;;;;7.22;3.22;;;;;;;4.41;54.29;100825.91;1736527;82;21651;-74
2021/04/25 03:30:31;;;;;;;7.05;3.10;;;;;;;4.43;54.45;100826.20;1737705;82;21138;-75
2021/04/25 03:32:58;;;;;;;5.35;2.55;;;;;;;4.47;54.03;100821.69;1737595;82;21469;-76
2021/04/25 03:35:26;;;;;;;8.93;2.70;;;;;;;4.50;54.02;100823.32;1735855;82;21172;-79
2021/04/25 03:37:53;;;;;;;5.92;3.00;;;;;;;4.51;54.04;100821.11;1711381;82;21128;-74
2021/04/25 03:40:21;;;;;;;6.40;2.47;;;;;;;4.58;54.03;100821.20;1737168;82;21478;-76
2021/04/25 03:42:48;;;;;;;8.68;3.37;;;;;;;4.58;54.03;100821.20;1737279;82;21113;-73
2021/04/25 03:45:18;;;;;;;7.70;2.77;;;;;;;4.60;53.92;100815.44;1731637;82;21128;-74
2021/04/25 03:47:47;;;;;;;7.25;3.37;;;;;;;4.64;53.94;100810.02;1733548;82;21561;-74
2021/04/25 03:50:16;;;;;;;6.70;2.40;;;;;;;4.68;53.90;100812.02;1730996;82;22120;-75
2021/04/25 03:52:45;;;;;;;5.62;3.10;;;;;;;4.73;54.00;100814.41;1736189;81;21587;-74
2021/04/25 03:55:16;;;;;;;7.20;3.85;;;;;;;4.76;54.08;100815.09;1737515;82;21136;-74
2021/04/25 03:57:43;;;;;;;7.55;3.95;;;;;;;4.81;54.08;100815.70;1736940;81;21164;-76
2021/04/25 04:00:13;;;;;;;8.18;4.80;;;;;;;4.83;53.86;100815.17;1722370;82;21520;-73
2021/04/25 04:02:40;;;;;;;9.65;4.62;;;;;;;4.83;53.71;100811.25;1712769;82;21908;-75
2021/04/25 04:05:10;;;;;;;10.50;4.95;;;;;;;4.84;53.77;100810.78;1735417;81;21208;-75
2021/04/25 04:07:37;;;;;;;8.33;5.15;;;;;;;4.82;53.84;100809.59;1736896;82;21164;-74
2021/04/25 04:10:05;;;;;;;10.45;4.83;;;;;;;4.82;53.97;100807.41;1699925;83;21223;-74
2021/04/25 04:12:32;;;;;;;9.70;4.55;;;;;;;4.81;53.95;100812.27;1721227;82;21188;-74
2021/04/25 04:15:00;;;;;;;10.93;4.40;;;;;;;4.80;53.99;100814.01;1718385;81;21666;-75
2021/04/25 04:17:28;;;;;;;8.18;4.22;;;;;;;4.82;53.88;100816.11;1734553;82;21291;-74
2021/04/25 04:19:57;;;;;;;7.65;3.75;;;;;;;4.83;53.74;100815.64;1713636;82;21619;-74
2021/04/25 04:22:24;;;;;;;7.50;3.35;;;;;;;4.84;53.42;100820.78;1735890;81;21168;-76
2021/04/25 04:24:52;;;;;;;8.88;3.92;;;;;;;4.86;53.50;100813.32;1734832;82;21125;-73
2021/04/25 04:27:20;;;;;;;8.38;3.72;;;;;;;4.87;53.48;100808.03;1716792;82;21292;-73
2021/04/25 04:29:47;;;;;;;6.67;4.12;;;;;;;4.89;53.33;100804.88;1734590;81;21191;-74
2021/04/25 04:32:14;;;;;;;5.65;2.90;;;;;;;4.92;53.16;100799.98;1718498;82;21267;-74
2021/04/25 04:34:42;;;;;;;8.30;3.65;;;;;;;4.89;53.23;100800.97;1733833;82;21158;-78
2021/04/25 04:37:10;;;;;;;6.72;3.55;;;;;;;4.90;53.33;100804.45;1705193;82;21151;-74
2021/04/25 04:39:37;;;;;;;6.33;2.62;;;;;;;4.91;53.04;100803.50;1727956;82;21159;-73
2021/04/25 04:42:05;;;;;;;6.30;2.47;;;;;;;4.91;53.25;100795.25;1734937;81;21195;-74
2021/04/25 04:44:32;;;;;;;6.40;3.02;;;;;;;4.94;53.19;100794.23;1738807;82;21152;-73
2021/04/25 04:47:00;;;;;;;6.42;3.27;;;;;;;4.97;53.28;100789.70;1730906;81;21626;-76
2021/04/25 04:49:27;;;;;;;5.55;2.65;;;;;;;5.01;53.05;100795.16;1704284;82;21202;-74
2021/04/25 04:51:54;;;;;;;6.62;3.02;;;;;;;5.06;53.16;100791.47;1734950;82;21214;-78
2021/04/25 04:54:21;;;;;;;6.92;3.25;;;;;;;5.13;53.24;100794.17;1743574;82;21163;-75
2021/04/25 04:56:49;;;;;;;5.53;2.67;;;;;;;5.17;52.96;100790.47;1743041;81;21579;-74
2021/04/25 04:59:16;;;;;;;9.38;3.58;;;;;;;5.26;53.17;100784.80;1737706;82;21199;-75
2021/04/25 05:01:43;;;;;;;7.70;3.58;;;;;;;5.33;52.96;100786.16;1679061;84;21156;-75
2021/04/25 05:04:11;;;;;;;8.20;4.08;;;;;;;5.39;52.60;100785.82;1682968;84;21224;-77
2021/04/25 05:06:38;;;;;;;6.28;3.30;;;;;;;5.47;52.43;100788.05;1705929;84;21188;-75
2021/04/25 05:09:07;;;;;;;8.68;4.22;;;;;;;5.54;52.54;100793.31;1660832;84;21195;-76
2021/04/25 05:11:34;;;;;;;7.15;3.35;;;;;;;5.62;52.27;100792.09;1685584;84;21207;-75
2021/04/25 05:14:02;;;;;;;6.37;3.22;;;;;;;5.67;51.98;100797.44;1688694;84;21176;-75
2021/04/25 05:16:29;;;;;;;9.68;3.02;;;;;;;5.74;51.76;100793.57;1687448;84;21627;-74
2021/04/25 05:18:56;;;;;;;8.10;3.50;;;;;;;5.79;51.57;100799.86;1687251;85;21183;-76
2021/04/25 05:21:23;;;;;;;7.65;3.25;;;;;;;5.82;51.60;100797.09;1659627;84;21239;-74
2021/04/25 05:23:52;;;;;;;10.68;4.08;;;;;;;5.88;51.93;100803.74;1687912;85;21128;-74
2021/04/25 05:26:20;;;;;;;6.03;3.08;;;;;;;5.94;51.68;100800.81;1685580;84;21141;-76
2021/04/25 05:28:47;;;;;;;8.80;3.27;;;;;;;5.99;51.49;100787.54;1685267;84;21163;-74
2021/04/25 05:31:15;;;;;;;6.85;2.98;;;;;;;6.03;51.78;100786.44;1660157;85;21187;-77
2021/04/25 05:33:42;;;;;;;6.97;3.05;;;;;;;6.08;51.68;100782.63;1660856;85;22046;-74
2021/04/25 05:36:09;;;;;;;7.78;2.75;;;;;;;6.18;51.21;100779.53;1662205;85;21180;-74
2021/04/25 05:38:36;;;;;;;6.85;3.30;;;;;;;6.26;51.56;100777.34;1687645;84;21530;-75
2021/04/25 05:41:04;;;;;;;9.90;3.00;;;;;;;6.36;51.46;100777.20;1668533;84;22054;-74
2021/04/25 05:43:33;;;;;;;7.42;3.37;;;;;;;6.49;51.27;100771.66;1677436;84;21586;-75
2021/04/25 05:46:01;;;;;;;7.70;3.17;;;;;;;6.61;50.91;100773.20;1669170;85;21608;-74
2021/04/25 05:48:28;;;;;;;5.92;3.10;;;;;;;6.71;51.17;100784.82;1675651;84;21179;-74
2021/04/25 05:50:56;;;;;;;8.00;3.00;;;;;;;6.82;50.83;100785.02;1656906;85;21151;-74
2021/04/25 05:53:24;;;;;;;6.97;3.00;;;;;;;6.96;50.16;100782.06;1684186;83;22239;-77
2021/04/25 05:55:51;;;;;;;6.17;2.92;;;;;;;7.09;50.35;100784.81;1750305;81;21163;-74
2021/04/25 05:58:18;;;;;;;6.17;3.35;;;;;;;7.21;50.06;100786.70;1744675;81;21140;-73
2021/04/25 06:00:46;;;;;;;6.03;2.87;;;;;;;7.31;49.27;100781.76;1738510;81;21182;-76
2021/04/25 06:03:13;;;;;;;9.10;3.75;;;;;;;7.39;49.09;100779.53;1744112;81;21148;-73
2021/04/25 06:05:40;;;;;;;6.15;3.15;;;;;;;7.47;49.37;100784.31;1738541;82;21192;-75
2021/04/25 06:08:08;;;;;;;5.90;2.60;;;;;;;7.58;48.76;100781.41;1739637;81;21129;-74
2021/04/25 06:10:35;;;;;;;8.43;3.22;;;;;;;7.69;48.56;100785.15;1741110;81;21789;-74
2021/04/25 06:13:04;;;;;;;9.33;3.85;;;;;;;7.81;48.24;100785.69;1734818;82;21151;-74
2021/04/25 06:15:32;;;;;;;6.45;3.42;;;;;;;7.91;48.10;100789.89;1745036;81;21163;-74
2021/04/25 06:18:04;;;;;;;6.47;3.35;;;;;;;8.00;47.98;100807.20;1736307;82;21199;-75
2021/04/25 06:20:30;;;;;;;7.97;2.98;;;;;;;8.09;47.54;100791.36;1735473;81;21128;-75
2021/04/25 06:22:59;;;;;;;8.85;3.80;;;;;;;8.17;47.98;100793.52;1732433;82;21148;-74
2021/04/25 06:25:27;;;;;;;7.62;3.58;;;;;;;8.26;47.28;100790.29;1731628;82;21440;-74
2021/04/25 06:27:56;;;;;;;7.62;3.65;;;;;;;8.35;46.86;100785.78;1738362;81;21682;-75
2021/04/25 06:30:23;;;;;;;7.10;3.70;;;;;;;8.41;46.96;100788.47;1736224;81;21209;-74
2021/04/25 06:32:50;;;;;;;6.70;3.42;;;;;;;8.46;46.82;100792.98;1711193;82;21236;-73
2021/04/25 06:35:18;;;;;;;11.63;3.35;;;;;;;8.49;46.71;100794.09;1734612;82;21207;-74
2021/04/25 06:37:46;;;;;;;7.28;3.08;;;;;;;8.51;47.10;100793.52;1693265;83;21470;-75
2021/04/25 06:40:15;;;;;;;6.65;3.02;;;;;;;8.61;46.41;100793.77;1674281;84;21136;-73
2021/04/25 06:42:42;;;;;;;8.63;3.22;;;;;;;8.64;46.54;100787.02;1643654;85;21199;-74
2021/04/25 06:45:14;;;;;;;5.47;2.87;;;;;;;8.67;45.83;100792.03;1741067;81;21180;-74
2021/04/25 06:47:41;;;;;;;6.35;3.45;;;;;;;8.70;46.16;100794.45;1741906;82;21192;-74
2021/04/25 06:50:11;;;;;;;7.10;3.37;;;;;;;8.76;46.30;100791.06;1732668;81;21139;-75
2021/04/25 06:52:42;;;;;;;8.65;3.35;;;;;;;8.80;46.54;100789.45;1736481;81;21607;-74
2021/04/25 06:55:14;;;;;;;8.10;3.35;;;;;;;8.85;46.33;100785.22;1737141;82;21451;-75
2021/04/25 06:57:43;;;;;;;8.43;3.90;;;;;;;8.88;45.96;100787.16;1733446;82;21480;-74
2021/04/25 07:00:11;;;;;;;6.78;3.33;;;;;;;8.93;46.15;100792.12;1730473;82;21164;-76
2021/04/25 07:02:39;;;;;;;7.17;3.35;;;;;;;9.01;45.56;100791.59;1713550;82;21150;-75
2021/04/25 07:05:08;;;;;;;8.95;4.03;;;;;;;9.08;45.86;100788.46;1733879;82;21590;-75
2021/04/25 07:07:35;;;;;;;10.13;3.65;;;;;;;9.17;45.25;100790.93;1722434;82;21184;-77
2021/04/25 07:10:05;;;;;;;6.83;3.10;;;;;;;9.26;45.47;100794.71;1695413;82;21195;-73
2021/04/25 07:12:32;;;;;;;6.42;2.70;;;;;;;9.32;45.64;100792.99;1710181;82;21432;-75
2021/04/25 07:15:00;;;;;;;7.87;3.00;;;;;;;9.43;45.28;100790.93;1707176;82;21306;-75
2021/04/25 07:17:27;;;;;;;4.80;2.85;;;;;;;9.52;44.20;100785.06;1726557;81;21164;-74
2021/04/25 07:19:54;;;;;;;7.40;3.40;;;;;;;9.58;43.92;100782.47;1724607;82;21206;-74
2021/04/25 07:22:21;;;;;;;6.83;3.25;;;;;;;9.61;43.83;100801.97;1725269;81;21176;-74
2021/04/25 07:24:49;;;;;;;7.95;3.33;;;;;;;9.64;43.46;100798.65;1732145;82;21219;-73
2021/04/25 07:27:18;;;;;;;6.08;2.70;;;;;;;9.66;43.47;100784.92;1720727;82;21176;-75
2021/04/25 07:29:46;;;;;;;6.47;3.45;;;;;;;9.67;43.92;100786.61;1694034;83;21185;-74
2021/04/25 07:32:14;;;;;;;6.62;3.55;;;;;;;9.73;43.97;100800.27;1661868;85;21265;-75
2021/04/25 07:34:41;;;;;;;7.90;3.02;;;;;;;9.79;42.90;100802.48;1728777;81;21171;-77
2021/04/25 07:37:09;;;;;;;6.87;3.15;;;;;;;9.84;42.74;100806.45;1711442;82;21212;-75
2021/04/25 07:39:37;;;;;;;7.70;3.70;;;;;;;9.87;42.62;100793.58;1674163;84;21161;-74
2021/04/25 07:42:05;;;;;;;7.08;3.40;;;;;;;9.91;43.20;100781.89;1713273;82;21790;-74
2021/04/25 07:44:34;;;;;;;10.38;3.55;;;;;;;10.00;43.64;100783.02;1730719;82;21128;-74
2021/04/25 07:47:01;;;;;;;6.80;3.70;;;;;;;10.14;43.47;100787.31;1720491;82;21606;-74
2021/04/25 07:49:30;;;;;;;7.12;3.50;;;;;;;10.28;42.55;100786.31;1731497;81;21101;-74
2021/04/25 07:51:58;;;;;;;7.58;3.92;;;;;;;10.38;41.65;100774.20;1727333;82;21199;-74
2021/04/25 07:54:26;;;;;;;7.75;3.70;;;;;;;10.40;42.00;100778.87;1699541;84;21200;-74
2021/04/25 07:56:55;;;;;;;7.80;3.55;;;;;;;10.47;42.74;100787.98;1678649;84;21595;-75
2021/04/25 07:59:23;;;;;;;6.42;2.92;;;;;;;10.58;41.40;100778.83;1678339;84;21215;-73
2021/04/25 08:01:50;;;;;;;5.55;2.95;;;;;;;10.67;40.96;100779.11;1682097;84;21137;-71
2021/04/25 08:04:18;;;;;;;6.75;3.12;;;;;;;10.77;40.85;100770.89;1687112;84;21167;-76
2021/04/25 08:06:45;;;;;;;5.35;2.58;;;;;;;10.91;39.90;100788.27;1689949;84;21186;-75
2021/04/25 08:09:12;;;;;;;6.10;3.00;;;;;;;10.96;38.96;100769.88;1680894;84;22202;-76
2021/04/25 08:11:40;;;;;;;6.42;2.52;;;;;;;10.99;39.35;100765.33;1678856;84;21160;-73
2021/04/25 08:14:09;;;;;;;6.30;3.17;;;;;;;10.99;38.97;100785.08;1679277;84;21291;-72
2021/04/25 08:16:36;;;;;;;6.42;2.70;;;;;;;10.95;38.96;100765.55;1676183;85;22296;-73
2021/04/25 08:19:04;;;;;;;7.12;3.12;;;;;;;10.95;38.22;100758.14;1658826;84;21272;-73
2021/04/25 08:21:33;;;;;;;6.28;2.72;;;;;;;10.91;38.76;100760.62;1675385;85;21211;-73
2021/04/25 08:24:00;;;;;;;7.62;2.58;;;;;;;10.93;38.08;100749.53;1674375;85;21212;-73
2021/04/25 08:26:28;;;;;;;5.67;2.42;;;;;;;10.99;38.03;100748.21;1678799;85;21188;-73
2021/04/25 08:28:55;;;;;;;6.55;3.35;;;;;;;11.02;38.02;100751.45;1675622;84;22005;-73
2021/04/25 08:31:23;;;;;;;6.28;2.83;;;;;;;11.07;38.07;100747.98;1671076;84;21141;-71
2021/04/25 08:33:50;;;;;;;6.33;3.60;;;;;;;11.15;37.99;100744.78;1677115;85;21209;-75
2021/04/25 08:36:17;;;;;;;6.40;3.20;;;;;;;11.23;38.40;100735.81;1673634;84;21199;-74
2021/04/25 08:38:46;;;;;;;7.08;2.58;;;;;;;11.33;37.81;100747.77;1648882;85;21269;-73
2021/04/25 08:41:16;;;;;;;5.92;2.98;;;;;;;11.37;38.58;100738.69;1680681;84;21193;-73
2021/04/25 08:43:44;;;;;;;5.28;2.52;;;;;;;11.45;38.02;100736.78;1681019;85;21186;-76
2021/04/25 08:48:59;;;;;;;7.42;3.87;;;;;;;11.60;38.79;100730.30;1841439;76;28014;-69
2021/04/25 08:51:28;;;;;;;7.33;3.10;;;;;;;11.90;38.72;100724.84;1811139;77;21100;-65
2021/04/25 08:53:55;;;;;;;6.53;3.27;;;;;;;12.29;37.27;100725.27;1831710;76;21589;-65
2021/04/25 08:56:23;;;;;;;7.70;3.40;;;;;;;12.37;36.44;100738.69;1829179;77;21135;-69
2021/04/25 08:58:56;;;;;;;5.53;2.98;;;;;;;12.31;36.77;100724.66;1832073;77;21128;-67
2021/04/25 09:01:25;;;;;;;5.87;2.47;;;;;;;12.19;36.29;100724.36;1822315;77;21614;-63
2021/04/25 09:03:56;;;;;;;5.85;2.62;;;;;;;12.12;35.72;100730.61;1840199;76;21017;-64
2021/04/25 09:06:24;;;;;;;7.65;2.72;;;;;;;12.08;36.21;100719.93;1847699;77;21179;-72
2021/04/25 09:08:59;;;;;;;5.22;2.70;;;;;;;12.08;36.23;100712.84;1826603;77;21189;-68
2021/04/25 09:11:39;;;;;;;6.97;2.72;;;;;;;12.12;36.67;100725.33;1826976;77;21150;-78
2021/04/25 09:14:24;;;;;;;5.70;2.62;;;;;;;12.13;35.82;100706.38;1817224;78;21155;-74
2021/04/25 09:16:59;;;;;;;6.25;2.60;;;;;;;12.11;35.87;100712.27;1805875;77;21123;-70
2021/04/25 09:19:57;;;;;;;6.22;2.50;;;;;;;12.14;36.00;100709.35;1804414;77;21187;-71
2021/04/25 09:22:46;;;;;;;5.25;2.40;;;;;;;12.24;35.71;100710.30;1845661;77;21524;-69
2021/04/25 09:25:17;;;;;;;7.70;2.90;;;;;;;12.35;35.67;100698.36;1840394;77;21164;-74
2021/04/25 09:27:47;;;;;;;5.95;2.60;;;;;;;12.39;34.03;100710.36;1748146;79;21202;-72
2021/04/25 09:30:23;;;;;;;6.45;2.45;;;;;;;12.38;34.67;100706.03;1764297;80;21717;-68
2021/04/25 09:33:09;;;;;;;5.20;1.70;;;;;;;12.39;34.85;100701.13;1743118;80;21159;-74
2021/04/25 09:35:39;;;;;;;5.60;2.33;;;;;;;12.43;34.14;100693.30;1768975;79;21203;-71
2021/04/25 09:38:12;;;;;;;5.72;2.60;;;;;;;12.40;33.71;100678.20;1770747;80;21155;-72
2021/04/25 09:40:49;;;;;;;7.55;2.65;;;;;;;12.36;34.31;100684.22;1780410;78;21602;-66
2021/04/25 09:43:19;;;;;;;6.42;2.67;;;;;;;12.36;34.99;100684.22;1777248;79;21193;-70
2021/04/25 09:45:51;;;;;;;5.03;2.15;;;;;;;12.36;35.27;100715.88;1797086;77;21368;-68
2021/04/25 09:48:24;;;;;;;5.72;2.52;;;;;;;12.31;35.40;100708.83;1762129;79;21178;-70
2021/04/25 09:51:18;;;;;;;5.72;2.47;;;;;;;12.33;35.78;100708.70;1742927;80;21183;-70
2021/04/25 09:53:55;;;;;;;5.65;2.15;;;;;;;12.31;36.82;100715.92;1769013;80;21128;-71
2021/04/25 09:56:32;;;;;;;9.63;3.08;;;;;;;12.24;37.11;100706.34;1766498;80;21120;-69
2021/04/25 09:59:05;;;;;;;6.05;2.62;;;;;;;12.20;37.33;100697.82;1762352;80;22173;-71
2021/04/25 10:01:39;;;;;;;5.58;2.25;;;;;;;12.15;37.53;100710.55;1792563;79;21202;-72
2021/04/25 10:04:36;;;;;;;6.60;2.42;;;;;;;12.04;37.81;100718.03;1779586;80;21111;-75
2021/04/25 10:07:10;;;;;;;6.65;2.85;;;;;;;11.98;37.77;100715.05;1765582;80;21178;-68
2021/04/25 10:09:39;;;;;;;6.08;2.35;;;;;;;11.86;38.50;100738.77;1777687;80;21515;-73
2021/04/25 10:12:07;;;;;;;7.15;3.00;;;;;;;11.78;39.26;100715.30;1771215;80;21160;-70
2021/04/25 10:14:35;;;;;;;7.00;2.95;;;;;;;11.75;39.17;100707.17;1765268;80;21622;-73
2021/04/25 10:17:09;;;;;;;5.62;3.05;;;;;;;11.74;39.08;100716.52;1767572;80;21194;-69
2021/04/25 10:19:38;;;;;;;8.68;2.55;;;;;;;11.73;39.14;100742.50;1776078;80;21127;-72
2021/04/25 10:22:07;;;;;;;6.97;3.02;;;;;;;11.70;39.19;100717.21;1774889;78;21179;-74
2021/04/25 10:24:37;;;;;;;6.05;2.75;;;;;;;11.68;39.18;100709.91;1771201;80;21116;-70
2021/04/25 10:27:11;;;;;;;6.25;2.60;;;;;;;11.70;39.13;100710.16;1770188;80;21548;-68
2021/04/25 10:29:56;;;;;;;7.55;2.90;;;;;;;11.78;39.75;100724.03;1779208;80;21618;-74
2021/04/25 10:32:24;;;;;;;7.85;2.72;;;;;;;11.90;39.04;100723.53;1773352;80;21170;-72
2021/04/25 10:35:15;;;;;;;6.90;3.10;;;;;;;11.96;39.39;100715.17;1768745;80;21159;-73
2021/04/25 10:37:44;;;;;;;6.30;3.20;;;;;;;12.05;39.99;100707.84;1753620;80;21178;-65
2021/04/25 10:40:30;;;;;;;5.00;2.45;;;;;;;12.13;39.31;100705.89;1770138;80;21136;-69
2021/04/25 10:43:10;;;;;;;6.17;2.37;;;;;;;12.12;39.47;100711.28;1775682;80;21143;-72
2021/04/25 10:45:58;;;;;;;4.78;2.30;;;;;;;12.07;39.50;100707.23;1772821;78;21206;-70
2021/04/25 10:48:34;;;;;;;6.67;2.35;;;;;;;12.14;39.42;100715.48;1764508;80;21191;-71
2021/04/25 10:51:12;;;;;;;7.10;2.70;;;;;;;12.22;39.48;100701.66;1768993;80;21370;-67
2021/04/25 10:53:46;;;;;;;4.70;2.37;;;;;;;12.29;39.51;100706.80;1760437;80;21180;-71
2021/04/25 10:56:21;;;;;;;7.58;2.87;;;;;;;12.35;39.78;100706.77;1763158;79;21136;-68
2021/04/25 10:59:20;;;;;;;5.67;2.60;;;;;;;12.39;39.77;100706.40;1764052;79;21115;-69
2021/04/25 11:01:49;;;;;;;5.40;2.60;;;;;;;12.35;40.23;100706.28;1759267;80;21501;-71
2021/04/25 11:04:57;;;;;;;3.75;1.65;;;;;;;12.22;39.96;100703.83;1779911;80;21373;-73
2021/04/25 11:07:40;;;;;;;5.53;2.40;;;;;;;12.10;40.51;100702.66;1732012;81;21144;-74
2021/04/25 11:10:09;;;;;;;7.08;2.52;;;;;;;11.99;40.58;100704.87;1760428;80;21109;-64
2021/04/25 11:12:40;;;;;;;5.72;2.40;;;;;;;11.85;40.83;100713.38;1793134;79;21104;-69
2021/04/25 11:15:10;;;;;;;5.95;2.60;;;;;;;11.70;41.07;100695.66;1806471;77;21107;-68
2021/04/25 11:17:38;;;;;;;5.83;2.35;;;;;;;11.58;41.29;100700.57;1768774;80;22250;-73
2021/04/25 11:20:32;;;;;;;5.28;2.65;;;;;;;11.49;41.74;100698.19;1776042;78;21187;-68
2021/04/25 11:23:03;;;;;;;7.05;2.77;;;;;;;11.46;41.80;100698.42;1794828;79;21133;-69
2021/04/25 11:25:33;;;;;;;6.22;2.37;;;;;;;11.46;41.85;100701.06;1774484;79;21178;-69
2021/04/25 11:28:01;;;;;;;6.33;2.60;;;;;;;11.43;41.50;100705.28;1777936;80;21175;-69
2021/04/25 11:30:39;;;;;;;5.55;2.50;;;;;;;11.39;41.86;100699.88;1774660;78;21380;-63
2021/04/25 11:33:34;;;;;;;6.28;2.90;;;;;;;11.36;41.75;100708.50;1777307;80;21167;-68
2021/04/25 11:36:38;;;;;;;9.35;3.37;;;;;;;11.29;41.84;100705.02;1777304;78;21152;-65
2021/04/25 11:39:07;;;;;;;8.20;3.90;;;;;;;11.17;43.84;100725.73;1782457;80;21223;-70
2021/04/25 11:41:37;;;;;;;6.85;3.65;;;;;;;10.97;46.97;100722.00;1777178;78;21194;-68
2021/04/25 11:44:06;;;;;;;7.83;4.28;;;;;;;10.83;47.23;100717.79;1774165;80;21240;-60
2021/04/25 11:46:35;;;;;;;7.40;4.15;;;;;;;10.71;47.44;100726.14;1774868;80;21170;-68